sensor_id;sensor_type;location;lat;lon;timestamp;P1;durP1;ratioP1;P2;durP2;ratioP2
21458;SDS011;10891;49.350;19.386;2023-08-06T00:01:56;22.50;;;14.57;;
21458;SDS011;10891;49.350;19.386;2023-08-06T00:04:23;22.70;;;14.65;;
21458;SDS011;10891;49.350;19.386;2023-08-06T00:06:50;22.20;;;14.80;;
21458;SDS011;10891;49.350;19.386;2023-08-06T00:09:17;25.13;;;15.80;;
21458;SDS011;10891;49.350;19.386;2023-08-06T00:11:45;26.95;;;15.63;;
21458;SDS011;10891;49.350;19.386;2023-08-06T00:14:12;26.33;;;16.25;;
21458;SDS011;10891;49.350;19.386;2023-08-06T00:16:42;27.00;;;15.13;;
21458;SDS011;10891;49.350;19.386;2023-08-06T00:19:11;32.55;;;18.38;;
21458;SDS011;10891;49.350;19.386;2023-08-06T00:21:39;28.25;;;15.95;;
21458;SDS011;10891;49.350;19.386;2023-08-06T00:24:06;32.58;;;20.55;;
21458;SDS011;10891;49.350;19.386;2023-08-06T00:26:33;31.27;;;19.67;;
21458;SDS011;10891;49.350;19.386;2023-08-06T00:29:00;33.42;;;19.48;;
21458;SDS011;10891;49.350;19.386;2023-08-06T00:31:27;32.10;;;20.23;;
21458;SDS011;10891;49.350;19.386;2023-08-06T00:33:54;32.80;;;20.05;;
21458;SDS011;10891;49.350;19.386;2023-08-06T00:36:23;33.63;;;20.92;;
21458;SDS011;10891;49.350;19.386;2023-08-06T00:38:50;34.97;;;19.27;;
21458;SDS011;10891;49.350;19.386;2023-08-06T00:41:17;28.75;;;17.90;;
21458;SDS011;10891;49.350;19.386;2023-08-06T00:43:44;30.60;;;17.25;;
21458;SDS011;10891;49.350;19.386;2023-08-06T00:46:12;28.48;;;16.13;;
21458;SDS011;10891;49.350;19.386;2023-08-06T00:48:39;29.88;;;15.85;;
21458;SDS011;10891;49.350;19.386;2023-08-06T00:51:06;28.77;;;15.48;;
21458;SDS011;10891;49.350;19.386;2023-08-06T00:53:35;28.05;;;15.18;;
21458;SDS011;10891;49.350;19.386;2023-08-06T00:56:03;26.35;;;15.50;;
21458;SDS011;10891;49.350;19.386;2023-08-06T00:58:30;27.15;;;15.35;;
21458;SDS011;10891;49.350;19.386;2023-08-06T01:00:57;29.50;;;15.25;;
21458;SDS011;10891;49.350;19.386;2023-08-06T01:03:24;30.55;;;17.25;;
21458;SDS011;10891;49.350;19.386;2023-08-06T01:05:51;42.00;;;25.73;;
21458;SDS011;10891;49.350;19.386;2023-08-06T01:08:21;32.67;;;18.00;;
21458;SDS011;10891;49.350;19.386;2023-08-06T01:10:54;35.60;;;18.67;;
21458;SDS011;10891;49.350;19.386;2023-08-06T01:13:27;39.67;;;21.42;;
21458;SDS011;10891;49.350;19.386;2023-08-06T01:15:58;45.40;;;24.20;;
21458;SDS011;10891;49.350;19.386;2023-08-06T01:18:25;53.38;;;30.90;;
21458;SDS011;10891;49.350;19.386;2023-08-06T01:20:54;34.83;;;19.30;;
21458;SDS011;10891;49.350;19.386;2023-08-06T01:23:21;36.30;;;18.33;;
21458;SDS011;10891;49.350;19.386;2023-08-06T01:25:51;40.03;;;21.35;;
21458;SDS011;10891;49.350;19.386;2023-08-06T01:28:22;61.53;;;22.70;;
21458;SDS011;10891;49.350;19.386;2023-08-06T01:30:52;40.05;;;21.50;;
21458;SDS011;10891;49.350;19.386;2023-08-06T01:33:21;42.15;;;21.27;;
21458;SDS011;10891;49.350;19.386;2023-08-06T01:35:48;47.15;;;23.60;;
21458;SDS011;10891;49.350;19.386;2023-08-06T01:38:17;36.95;;;21.13;;
21458;SDS011;10891;49.350;19.386;2023-08-06T01:40:45;34.85;;;18.52;;
21458;SDS011;10891;49.350;19.386;2023-08-06T01:43:12;37.35;;;19.38;;
21458;SDS011;10891;49.350;19.386;2023-08-06T01:45:39;39.47;;;19.13;;
21458;SDS011;10891;49.350;19.386;2023-08-06T01:48:06;36.85;;;19.23;;
21458;SDS011;10891;49.350;19.386;2023-08-06T01:50:33;35.10;;;18.95;;
21458;SDS011;10891;49.350;19.386;2023-08-06T01:53:00;38.08;;;19.27;;
21458;SDS011;10891;49.350;19.386;2023-08-06T01:55:30;38.90;;;18.67;;
21458;SDS011;10891;49.350;19.386;2023-08-06T01:57:57;39.45;;;18.27;;
21458;SDS011;10891;49.350;19.386;2023-08-06T02:00:24;36.85;;;18.90;;
21458;SDS011;10891;49.350;19.386;2023-08-06T02:02:52;37.08;;;18.73;;
21458;SDS011;10891;49.350;19.386;2023-08-06T02:05:20;38.60;;;18.40;;
21458;SDS011;10891;49.350;19.386;2023-08-06T02:07:47;36.47;;;16.90;;
21458;SDS011;10891;49.350;19.386;2023-08-06T02:10:14;36.63;;;18.13;;
21458;SDS011;10891;49.350;19.386;2023-08-06T02:12:43;33.85;;;17.67;;
21458;SDS011;10891;49.350;19.386;2023-08-06T02:15:10;28.25;;;16.92;;
21458;SDS011;10891;49.350;19.386;2023-08-06T02:17:37;29.30;;;15.75;;
21458;SDS011;10891;49.350;19.386;2023-08-06T02:20:05;30.92;;;16.73;;
21458;SDS011;10891;49.350;19.386;2023-08-06T02:22:32;34.15;;;17.08;;
21458;SDS011;10891;49.350;19.386;2023-08-06T02:24:59;32.78;;;17.98;;
21458;SDS011;10891;49.350;19.386;2023-08-06T02:27:26;35.50;;;19.48;;
21458;SDS011;10891;49.350;19.386;2023-08-06T02:29:55;42.42;;;22.02;;
21458;SDS011;10891;49.350;19.386;2023-08-06T02:32:22;40.03;;;21.38;;
21458;SDS011;10891;49.350;19.386;2023-08-06T02:34:49;46.58;;;22.20;;
21458;SDS011;10891;49.350;19.386;2023-08-06T02:37:16;49.13;;;23.83;;
21458;SDS011;10891;49.350;19.386;2023-08-06T02:39:43;47.80;;;22.08;;
21458;SDS011;10891;49.350;19.386;2023-08-06T02:42:11;52.97;;;24.65;;
21458;SDS011;10891;49.350;19.386;2023-08-06T02:44:38;53.83;;;25.33;;
21458;SDS011;10891;49.350;19.386;2023-08-06T02:47:07;51.58;;;23.50;;
21458;SDS011;10891;49.350;19.386;2023-08-06T02:49:34;49.05;;;24.13;;
21458;SDS011;10891;49.350;19.386;2023-08-06T02:52:01;48.22;;;23.33;;
21458;SDS011;10891;49.350;19.386;2023-08-06T02:54:28;41.40;;;21.33;;
21458;SDS011;10891;49.350;19.386;2023-08-06T02:56:56;47.30;;;22.38;;
21458;SDS011;10891;49.350;19.386;2023-08-06T02:59:23;44.42;;;22.20;;
21458;SDS011;10891;49.350;19.386;2023-08-06T03:01:50;45.33;;;20.35;;
21458;SDS011;10891;49.350;19.386;2023-08-06T03:04:18;35.50;;;18.55;;
21458;SDS011;10891;49.350;19.386;2023-08-06T03:06:46;60.20;;;33.20;;
21458;SDS011;10891;49.350;19.386;2023-08-06T03:09:13;45.55;;;21.77;;
21458;SDS011;10891;49.350;19.386;2023-08-06T03:11:40;38.17;;;21.05;;
21458;SDS011;10891;49.350;19.386;2023-08-06T03:14:07;39.28;;;19.83;;
21458;SDS011;10891;49.350;19.386;2023-08-06T03:16:34;37.47;;;20.17;;
21458;SDS011;10891;49.350;19.386;2023-08-06T03:19:02;40.88;;;20.00;;
21458;SDS011;10891;49.350;19.386;2023-08-06T03:21:30;40.30;;;20.45;;
21458;SDS011;10891;49.350;19.386;2023-08-06T03:23:57;53.92;;;27.83;;
21458;SDS011;10891;49.350;19.386;2023-08-06T03:26:24;76.20;;;37.78;;
21458;SDS011;10891;49.350;19.386;2023-08-06T03:28:52;43.63;;;23.50;;
21458;SDS011;10891;49.350;19.386;2023-08-06T03:31:19;44.85;;;24.25;;
21458;SDS011;10891;49.350;19.386;2023-08-06T03:33:46;60.95;;;30.23;;
21458;SDS011;10891;49.350;19.386;2023-08-06T03:36:13;55.90;;;28.70;;
21458;SDS011;10891;49.350;19.386;2023-08-06T03:38:41;52.92;;;26.35;;
21458;SDS011;10891;49.350;19.386;2023-08-06T03:41:09;51.80;;;27.40;;
21458;SDS011;10891;49.350;19.386;2023-08-06T03:43:36;73.45;;;38.22;;
21458;SDS011;10891;49.350;19.386;2023-08-06T03:46:03;71.13;;;36.10;;
21458;SDS011;10891;49.350;19.386;2023-08-06T03:48:30;70.07;;;35.88;;
21458;SDS011;10891;49.350;19.386;2023-08-06T03:50:57;57.85;;;30.50;;
21458;SDS011;10891;49.350;19.386;2023-08-06T03:53:26;48.40;;;23.63;;
21458;SDS011;10891;49.350;19.386;2023-08-06T03:55:55;48.65;;;23.27;;
21458;SDS011;10891;49.350;19.386;2023-08-06T03:58:25;50.22;;;24.20;;
21458;SDS011;10891;49.350;19.386;2023-08-06T04:00:57;44.17;;;21.55;;
21458;SDS011;10891;49.350;19.386;2023-08-06T04:03:24;44.33;;;21.98;;
21458;SDS011;10891;49.350;19.386;2023-08-06T04:05:51;37.60;;;20.15;;
21458;SDS011;10891;49.350;19.386;2023-08-06T04:08:18;35.25;;;19.52;;
21458;SDS011;10891;49.350;19.386;2023-08-06T04:10:48;38.65;;;20.10;;
21458;SDS011;10891;49.350;19.386;2023-08-06T04:13:17;37.88;;;19.80;;
21458;SDS011;10891;49.350;19.386;2023-08-06T04:15:44;36.17;;;20.73;;
21458;SDS011;10891;49.350;19.386;2023-08-06T04:18:12;35.92;;;19.80;;
21458;SDS011;10891;49.350;19.386;2023-08-06T04:20:42;36.47;;;19.50;;
21458;SDS011;10891;49.350;19.386;2023-08-06T04:23:10;39.22;;;19.83;;
21458;SDS011;10891;49.350;19.386;2023-08-06T04:25:37;34.55;;;17.60;;
21458;SDS011;10891;49.350;19.386;2023-08-06T04:28:04;32.47;;;18.27;;
21458;SDS011;10891;49.350;19.386;2023-08-06T04:30:33;31.55;;;16.52;;
21458;SDS011;10891;49.350;19.386;2023-08-06T04:33:00;32.50;;;17.58;;
21458;SDS011;10891;49.350;19.386;2023-08-06T04:35:27;30.67;;;17.13;;
21458;SDS011;10891;49.350;19.386;2023-08-06T04:37:54;37.63;;;19.17;;
21458;SDS011;10891;49.350;19.386;2023-08-06T04:40:22;59.63;;;30.02;;
21458;SDS011;10891;49.350;19.386;2023-08-06T04:42:49;36.95;;;20.63;;
21458;SDS011;10891;49.350;19.386;2023-08-06T04:45:16;47.00;;;22.60;;
21458;SDS011;10891;49.350;19.386;2023-08-06T04:47:45;58.50;;;26.90;;
21458;SDS011;10891;49.350;19.386;2023-08-06T04:50:12;48.80;;;25.77;;
21458;SDS011;10891;49.350;19.386;2023-08-06T04:52:39;51.13;;;23.67;;
21458;SDS011;10891;49.350;19.386;2023-08-06T04:55:06;49.30;;;24.88;;
21458;SDS011;10891;49.350;19.386;2023-08-06T04:57:34;42.13;;;23.17;;
21458;SDS011;10891;49.350;19.386;2023-08-06T05:00:01;33.53;;;18.63;;
21458;SDS011;10891;49.350;19.386;2023-08-06T05:02:29;29.50;;;17.80;;
21458;SDS011;10891;49.350;19.386;2023-08-06T05:04:58;28.83;;;16.60;;
21458;SDS011;10891;49.350;19.386;2023-08-06T05:07:26;29.90;;;17.13;;
21458;SDS011;10891;49.350;19.386;2023-08-06T05:09:53;32.08;;;17.70;;
21458;SDS011;10891;49.350;19.386;2023-08-06T05:12:20;31.88;;;17.45;;
21458;SDS011;10891;49.350;19.386;2023-08-06T05:14:47;29.67;;;17.90;;
21458;SDS011;10891;49.350;19.386;2023-08-06T05:17:14;30.02;;;17.45;;
21458;SDS011;10891;49.350;19.386;2023-08-06T05:19:42;37.85;;;19.92;;
21458;SDS011;10891;49.350;19.386;2023-08-06T05:22:10;44.63;;;21.80;;
21458;SDS011;10891;49.350;19.386;2023-08-06T05:24:37;36.40;;;19.42;;
21458;SDS011;10891;49.350;19.386;2023-08-06T05:27:05;39.92;;;20.38;;
21458;SDS011;10891;49.350;19.386;2023-08-06T05:29:32;36.25;;;20.45;;
21458;SDS011;10891;49.350;19.386;2023-08-06T05:31:59;41.00;;;20.98;;
21458;SDS011;10891;49.350;19.386;2023-08-06T05:34:26;37.92;;;19.50;;
21458;SDS011;10891;49.350;19.386;2023-08-06T05:36:54;30.20;;;17.73;;
21458;SDS011;10891;49.350;19.386;2023-08-06T05:39:22;28.45;;;15.50;;
21458;SDS011;10891;49.350;19.386;2023-08-06T05:41:49;26.55;;;16.15;;
21458;SDS011;10891;49.350;19.386;2023-08-06T05:44:17;26.17;;;15.05;;
21458;SDS011;10891;49.350;19.386;2023-08-06T05:46:44;50.60;;;35.22;;
21458;SDS011;10891;49.350;19.386;2023-08-06T05:49:11;19.65;;;13.55;;
21458;SDS011;10891;49.350;19.386;2023-08-06T05:51:39;21.85;;;13.98;;
21458;SDS011;10891;49.350;19.386;2023-08-06T05:54:06;19.10;;;12.80;;
21458;SDS011;10891;49.350;19.386;2023-08-06T05:56:34;17.40;;;10.48;;
21458;SDS011;10891;49.350;19.386;2023-08-06T05:59:02;14.15;;;9.45;;
21458;SDS011;10891;49.350;19.386;2023-08-06T06:01:29;16.13;;;10.40;;
21458;SDS011;10891;49.350;19.386;2023-08-06T06:03:56;14.48;;;8.10;;
21458;SDS011;10891;49.350;19.386;2023-08-06T06:06:25;10.55;;;6.93;;
21458;SDS011;10891;49.350;19.386;2023-08-06T06:08:52;10.48;;;7.25;;
21458;SDS011;10891;49.350;19.386;2023-08-06T06:11:20;10.05;;;6.68;;
21458;SDS011;10891;49.350;19.386;2023-08-06T06:13:49;9.18;;;6.97;;
21458;SDS011;10891;49.350;19.386;2023-08-06T06:16:16;9.13;;;6.57;;
21458;SDS011;10891;49.350;19.386;2023-08-06T06:18:43;6.70;;;5.45;;
21458;SDS011;10891;49.350;19.386;2023-08-06T06:21:11;8.57;;;5.35;;
21458;SDS011;10891;49.350;19.386;2023-08-06T06:23:38;7.40;;;5.32;;
21458;SDS011;10891;49.350;19.386;2023-08-06T06:26:05;9.15;;;5.57;;
21458;SDS011;10891;49.350;19.386;2023-08-06T06:28:32;15.38;;;7.28;;
21458;SDS011;10891;49.350;19.386;2023-08-06T06:31:01;38.05;;;12.23;;
21458;SDS011;10891;49.350;19.386;2023-08-06T06:33:28;36.80;;;11.38;;
21458;SDS011;10891;49.350;19.386;2023-08-06T06:35:56;33.10;;;11.77;;
21458;SDS011;10891;49.350;19.386;2023-08-06T06:38:23;33.72;;;11.10;;
21458;SDS011;10891;49.350;19.386;2023-08-06T06:40:53;14.18;;;7.03;;
21458;SDS011;10891;49.350;19.386;2023-08-06T06:43:20;6.57;;;5.05;;
21458;SDS011;10891;49.350;19.386;2023-08-06T06:45:52;7.47;;;5.32;;
21458;SDS011;10891;49.350;19.386;2023-08-06T06:48:21;28.15;;;9.05;;
21458;SDS011;10891;49.350;19.386;2023-08-06T06:50:48;12.30;;;5.85;;
21458;SDS011;10891;49.350;19.386;2023-08-06T06:53:16;12.15;;;5.22;;
21458;SDS011;10891;49.350;19.386;2023-08-06T06:55:43;7.82;;;4.50;;
21458;SDS011;10891;49.350;19.386;2023-08-06T06:58:10;6.80;;;4.43;;
21458;SDS011;10891;49.350;19.386;2023-08-06T07:00:38;6.35;;;4.32;;
21458;SDS011;10891;49.350;19.386;2023-08-06T07:03:05;5.65;;;4.40;;
21458;SDS011;10891;49.350;19.386;2023-08-06T07:05:34;4.90;;;3.70;;
21458;SDS011;10891;49.350;19.386;2023-08-06T07:08:01;7.53;;;3.55;;
21458;SDS011;10891;49.350;19.386;2023-08-06T07:10:28;4.00;;;3.50;;
21458;SDS011;10891;49.350;19.386;2023-08-06T07:12:55;7.20;;;3.53;;
21458;SDS011;10891;49.350;19.386;2023-08-06T07:15:22;3.60;;;3.03;;
21458;SDS011;10891;49.350;19.386;2023-08-06T07:17:49;4.03;;;3.60;;
21458;SDS011;10891;49.350;19.386;2023-08-06T07:20:17;5.47;;;3.30;;
21458;SDS011;10891;49.350;19.386;2023-08-06T07:22:45;3.95;;;3.17;;
21458;SDS011;10891;49.350;19.386;2023-08-06T07:25:13;3.40;;;3.10;;
21458;SDS011;10891;49.350;19.386;2023-08-06T07:27:40;6.30;;;3.40;;
21458;SDS011;10891;49.350;19.386;2023-08-06T07:30:07;4.57;;;3.72;;
21458;SDS011;10891;49.350;19.386;2023-08-06T07:32:35;4.85;;;3.45;;
21458;SDS011;10891;49.350;19.386;2023-08-06T07:35:02;5.88;;;4.95;;
21458;SDS011;10891;49.350;19.386;2023-08-06T07:37:29;3.83;;;3.25;;
21458;SDS011;10891;49.350;19.386;2023-08-06T07:39:58;4.20;;;3.42;;
21458;SDS011;10891;49.350;19.386;2023-08-06T07:42:25;3.65;;;3.35;;
21458;SDS011;10891;49.350;19.386;2023-08-06T07:44:53;4.57;;;3.42;;
21458;SDS011;10891;49.350;19.386;2023-08-06T07:47:21;3.40;;;3.10;;
21458;SDS011;10891;49.350;19.386;2023-08-06T07:49:49;5.70;;;3.00;;
21458;SDS011;10891;49.350;19.386;2023-08-06T07:52:16;2.78;;;2.53;;
21458;SDS011;10891;49.350;19.386;2023-08-06T07:54:44;3.38;;;2.63;;
21458;SDS011;10891;49.350;19.386;2023-08-06T07:57:13;3.10;;;2.80;;
21458;SDS011;10891;49.350;19.386;2023-08-06T07:59:40;3.30;;;2.95;;
21458;SDS011;10891;49.350;19.386;2023-08-06T08:02:08;3.78;;;3.30;;
21458;SDS011;10891;49.350;19.386;2023-08-06T08:04:35;2.75;;;2.47;;
21458;SDS011;10891;49.350;19.386;2023-08-06T08:07:02;3.42;;;3.10;;
21458;SDS011;10891;49.350;19.386;2023-08-06T08:09:30;4.82;;;3.20;;
21458;SDS011;10891;49.350;19.386;2023-08-06T08:11:57;3.53;;;3.22;;
21458;SDS011;10891;49.350;19.386;2023-08-06T08:14:27;3.30;;;2.90;;
21458;SDS011;10891;49.350;19.386;2023-08-06T08:17:00;3.20;;;2.75;;
21458;SDS011;10891;49.350;19.386;2023-08-06T08:19:27;3.17;;;2.92;;
21458;SDS011;10891;49.350;19.386;2023-08-06T08:21:55;4.55;;;2.80;;
21458;SDS011;10891;49.350;19.386;2023-08-06T08:24:22;4.07;;;2.90;;
21458;SDS011;10891;49.350;19.386;2023-08-06T08:26:50;2.88;;;2.60;;
21458;SDS011;10891;49.350;19.386;2023-08-06T08:29:18;5.15;;;2.85;;
21458;SDS011;10891;49.350;19.386;2023-08-06T08:31:47;3.97;;;2.80;;
21458;SDS011;10891;49.350;19.386;2023-08-06T08:34:15;3.40;;;3.00;;
21458;SDS011;10891;49.350;19.386;2023-08-06T08:36:42;3.38;;;3.08;;
21458;SDS011;10891;49.350;19.386;2023-08-06T08:39:12;6.65;;;3.65;;
21458;SDS011;10891;49.350;19.386;2023-08-06T08:41:39;4.43;;;3.50;;
21458;SDS011;10891;49.350;19.386;2023-08-06T08:44:07;5.72;;;3.00;;
21458;SDS011;10891;49.350;19.386;2023-08-06T08:46:36;6.30;;;3.17;;
21458;SDS011;10891;49.350;19.386;2023-08-06T08:49:05;2.80;;;2.60;;
21458;SDS011;10891;49.350;19.386;2023-08-06T08:51:33;20.15;;;13.18;;
21458;SDS011;10891;49.350;19.386;2023-08-06T08:54:01;17.25;;;12.65;;
21458;SDS011;10891;49.350;19.386;2023-08-06T08:56:29;116.88;;;64.28;;
21458;SDS011;10891;49.350;19.386;2023-08-06T08:58:57;25.00;;;14.25;;
21458;SDS011;10891;49.350;19.386;2023-08-06T09:01:24;62.75;;;47.17;;
21458;SDS011;10891;49.350;19.386;2023-08-06T09:03:52;3.75;;;1.95;;
21458;SDS011;10891;49.350;19.386;2023-08-06T09:06:22;2.25;;;2.05;;
21458;SDS011;10891;49.350;19.386;2023-08-06T09:08:56;3.60;;;2.72;;
21458;SDS011;10891;49.350;19.386;2023-08-06T09:11:24;5.03;;;2.67;;
21458;SDS011;10891;49.350;19.386;2023-08-06T09:13:51;2.50;;;2.30;;
21458;SDS011;10891;49.350;19.386;2023-08-06T09:16:20;4.47;;;3.78;;
21458;SDS011;10891;49.350;19.386;2023-08-06T09:18:48;3.45;;;2.85;;
21458;SDS011;10891;49.350;19.386;2023-08-06T09:21:15;5.63;;;2.63;;
21458;SDS011;10891;49.350;19.386;2023-08-06T09:23:43;4.03;;;2.88;;
21458;SDS011;10891;49.350;19.386;2023-08-06T09:26:11;2.35;;;2.00;;
21458;SDS011;10891;49.350;19.386;2023-08-06T09:28:40;4.65;;;2.25;;
21458;SDS011;10891;49.350;19.386;2023-08-06T09:31:08;2.30;;;2.10;;
21458;SDS011;10891;49.350;19.386;2023-08-06T09:33:38;6.88;;;4.57;;
21458;SDS011;10891;49.350;19.386;2023-08-06T09:36:09;15.02;;;9.52;;
21458;SDS011;10891;49.350;19.386;2023-08-06T09:38:39;20.27;;;15.05;;
21458;SDS011;10891;49.350;19.386;2023-08-06T09:41:08;2.55;;;2.35;;
21458;SDS011;10891;49.350;19.386;2023-08-06T09:43:41;3.53;;;3.03;;
21458;SDS011;10891;49.350;19.386;2023-08-06T09:46:12;2.45;;;2.15;;
21458;SDS011;10891;49.350;19.386;2023-08-06T09:48:44;2.50;;;2.00;;
21458;SDS011;10891;49.350;19.386;2023-08-06T09:51:11;2.88;;;1.67;;
21458;SDS011;10891;49.350;19.386;2023-08-06T09:53:40;2.22;;;1.40;;
21458;SDS011;10891;49.350;19.386;2023-08-06T09:56:09;3.35;;;1.45;;
21458;SDS011;10891;49.350;19.386;2023-08-06T09:58:36;3.85;;;1.20;;
21458;SDS011;10891;49.350;19.386;2023-08-06T10:01:04;1.85;;;1.25;;
21458;SDS011;10891;49.350;19.386;2023-08-06T10:03:31;2.00;;;1.60;;
21458;SDS011;10891;49.350;19.386;2023-08-06T10:05:59;1.20;;;1.08;;
21458;SDS011;10891;49.350;19.386;2023-08-06T10:08:31;1.92;;;1.42;;
21458;SDS011;10891;49.350;19.386;2023-08-06T10:10:58;2.22;;;1.40;;
21458;SDS011;10891;49.350;19.386;2023-08-06T10:13:27;2.95;;;2.42;;
21458;SDS011;10891;49.350;19.386;2023-08-06T10:15:55;5.15;;;3.47;;
21458;SDS011;10891;49.350;19.386;2023-08-06T10:18:22;13.25;;;7.35;;
21458;SDS011;10891;49.350;19.386;2023-08-06T10:20:50;16.50;;;8.90;;
21458;SDS011;10891;49.350;19.386;2023-08-06T10:23:18;9.95;;;4.45;;
21458;SDS011;10891;49.350;19.386;2023-08-06T10:25:46;27.60;;;10.90;;
21458;SDS011;10891;49.350;19.386;2023-08-06T10:28:21;35.50;;;11.80;;
21458;SDS011;10891;49.350;19.386;2023-08-06T10:30:50;43.40;;;13.85;;
21458;SDS011;10891;49.350;19.386;2023-08-06T10:33:19;5.53;;;2.20;;
21458;SDS011;10891;49.350;19.386;2023-08-06T10:35:48;1.42;;;0.65;;
21458;SDS011;10891;49.350;19.386;2023-08-06T10:38:15;3.25;;;1.35;;
21458;SDS011;10891;49.350;19.386;2023-08-06T10:40:48;11.20;;;4.50;;
21458;SDS011;10891;49.350;19.386;2023-08-06T10:43:24;7.78;;;2.88;;
21458;SDS011;10891;49.350;19.386;2023-08-06T10:45:54;11.88;;;6.57;;
21458;SDS011;10891;49.350;19.386;2023-08-06T10:48:28;9.50;;;5.45;;
21458;SDS011;10891;49.350;19.386;2023-08-06T10:50:56;5.13;;;2.53;;
21458;SDS011;10891;49.350;19.386;2023-08-06T10:53:24;4.00;;;2.00;;
21458;SDS011;10891;49.350;19.386;2023-08-06T10:55:52;2.15;;;1.40;;
21458;SDS011;10891;49.350;19.386;2023-08-06T10:58:20;5.00;;;1.48;;
21458;SDS011;10891;49.350;19.386;2023-08-06T11:00:48;4.63;;;1.60;;
21458;SDS011;10891;49.350;19.386;2023-08-06T11:03:18;2.47;;;1.27;;
21458;SDS011;10891;49.350;19.386;2023-08-06T11:05:48;1.83;;;0.80;;
21458;SDS011;10891;49.350;19.386;2023-08-06T11:08:22;1.25;;;0.73;;
21458;SDS011;10891;49.350;19.386;2023-08-06T11:10:50;1.90;;;0.65;;
21458;SDS011;10891;49.350;19.386;2023-08-06T11:13:18;3.65;;;0.70;;
21458;SDS011;10891;49.350;19.386;2023-08-06T11:15:45;2.90;;;1.08;;
21458;SDS011;10891;49.350;19.386;2023-08-06T11:18:13;8.30;;;5.55;;
21458;SDS011;10891;49.350;19.386;2023-08-06T11:20:42;2.72;;;1.23;;
21458;SDS011;10891;49.350;19.386;2023-08-06T11:23:09;1.50;;;0.93;;
21458;SDS011;10891;49.350;19.386;2023-08-06T11:25:37;1.88;;;1.00;;
21458;SDS011;10891;49.350;19.386;2023-08-06T11:28:11;3.20;;;1.80;;
21458;SDS011;10891;49.350;19.386;2023-08-06T11:30:39;2.55;;;0.80;;
21458;SDS011;10891;49.350;19.386;2023-08-06T11:33:06;0.50;;;0.40;;
21458;SDS011;10891;49.350;19.386;2023-08-06T11:35:34;1.58;;;0.95;;
21458;SDS011;10891;49.350;19.386;2023-08-06T11:38:03;0.80;;;0.80;;
21458;SDS011;10891;49.350;19.386;2023-08-06T11:40:31;0.80;;;0.40;;
21458;SDS011;10891;49.350;19.386;2023-08-06T11:42:59;0.73;;;0.50;;
21458;SDS011;10891;49.350;19.386;2023-08-06T11:45:27;1.42;;;0.40;;
21458;SDS011;10891;49.350;19.386;2023-08-06T11:47:55;0.65;;;0.65;;
21458;SDS011;10891;49.350;19.386;2023-08-06T11:50:23;0.45;;;0.40;;
21458;SDS011;10891;49.350;19.386;2023-08-06T11:52:52;0.30;;;0.30;;
21458;SDS011;10891;49.350;19.386;2023-08-06T11:55:22;0.30;;;0.30;;
21458;SDS011;10891;49.350;19.386;2023-08-06T11:57:50;0.93;;;0.60;;
21458;SDS011;10891;49.350;19.386;2023-08-06T12:00:18;0.50;;;0.30;;
21458;SDS011;10891;49.350;19.386;2023-08-06T12:02:47;0.40;;;0.40;;
21458;SDS011;10891;49.350;19.386;2023-08-06T12:05:16;2.25;;;0.40;;
21458;SDS011;10891;49.350;19.386;2023-08-06T12:07:46;1.75;;;0.20;;
21458;SDS011;10891;49.350;19.386;2023-08-06T12:10:14;1.75;;;0.63;;
21458;SDS011;10891;49.350;19.386;2023-08-06T12:12:43;2.47;;;0.25;;
21458;SDS011;10891;49.350;19.386;2023-08-06T12:15:10;0.60;;;0.35;;
21458;SDS011;10891;49.350;19.386;2023-08-06T12:17:38;0.43;;;0.30;;
21458;SDS011;10891;49.350;19.386;2023-08-06T12:20:06;0.95;;;0.40;;
21458;SDS011;10891;49.350;19.386;2023-08-06T12:22:34;0.32;;;0.30;;
21458;SDS011;10891;49.350;19.386;2023-08-06T12:25:02;0.80;;;0.30;;
21458;SDS011;10891;49.350;19.386;2023-08-06T12:27:33;0.50;;;0.30;;
21458;SDS011;10891;49.350;19.386;2023-08-06T12:30:02;0.85;;;0.30;;
21458;SDS011;10891;49.350;19.386;2023-08-06T12:32:29;1.92;;;0.70;;
21458;SDS011;10891;49.350;19.386;2023-08-06T12:34:57;0.82;;;0.60;;
21458;SDS011;10891;49.350;19.386;2023-08-06T12:37:26;0.40;;;0.40;;
21458;SDS011;10891;49.350;19.386;2023-08-06T12:39:53;0.70;;;0.65;;
21458;SDS011;10891;49.350;19.386;2023-08-06T12:42:20;0.85;;;0.65;;
21458;SDS011;10891;49.350;19.386;2023-08-06T12:44:49;1.42;;;0.40;;
21458;SDS011;10891;49.350;19.386;2023-08-06T12:47:18;0.88;;;0.52;;
21458;SDS011;10891;49.350;19.386;2023-08-06T12:49:46;0.30;;;0.30;;
21458;SDS011;10891;49.350;19.386;2023-08-06T12:52:14;5.35;;;3.15;;
21458;SDS011;10891;49.350;19.386;2023-08-06T12:54:42;2.17;;;0.73;;
21458;SDS011;10891;49.350;19.386;2023-08-06T12:57:11;2.83;;;0.80;;
21458;SDS011;10891;49.350;19.386;2023-08-06T12:59:39;0.90;;;0.68;;
21458;SDS011;10891;49.350;19.386;2023-08-06T13:02:06;1.20;;;0.45;;
21458;SDS011;10891;49.350;19.386;2023-08-06T13:04:35;1.00;;;0.70;;
21458;SDS011;10891;49.350;19.386;2023-08-06T13:07:03;4.13;;;1.48;;
21458;SDS011;10891;49.350;19.386;2023-08-06T13:09:31;0.80;;;0.70;;
21458;SDS011;10891;49.350;19.386;2023-08-06T13:11:58;5.63;;;2.95;;
21458;SDS011;10891;49.350;19.386;2023-08-06T13:14:30;0.85;;;0.70;;
21458;SDS011;10891;49.350;19.386;2023-08-06T13:16:58;1.45;;;1.30;;
21458;SDS011;10891;49.350;19.386;2023-08-06T13:19:26;0.80;;;0.60;;
21458;SDS011;10891;49.350;19.386;2023-08-06T13:22:04;0.50;;;0.50;;
21458;SDS011;10891;49.350;19.386;2023-08-06T13:24:34;0.50;;;0.50;;
21458;SDS011;10891;49.350;19.386;2023-08-06T13:27:02;0.80;;;0.60;;
21458;SDS011;10891;49.350;19.386;2023-08-06T13:29:30;0.45;;;0.40;;
21458;SDS011;10891;49.350;19.386;2023-08-06T13:31:57;0.55;;;0.55;;
21458;SDS011;10891;49.350;19.386;2023-08-06T13:34:25;0.77;;;0.35;;
21458;SDS011;10891;49.350;19.386;2023-08-06T13:36:52;1.67;;;0.40;;
21458;SDS011;10891;49.350;19.386;2023-08-06T13:39:21;1.08;;;0.40;;
21458;SDS011;10891;49.350;19.386;2023-08-06T13:41:49;0.30;;;0.30;;
21458;SDS011;10891;49.350;19.386;2023-08-06T13:44:16;0.52;;;0.40;;
21458;SDS011;10891;49.350;19.386;2023-08-06T13:46:44;0.30;;;0.30;;
21458;SDS011;10891;49.350;19.386;2023-08-06T13:49:12;0.73;;;0.73;;
21458;SDS011;10891;49.350;19.386;2023-08-06T13:51:40;3.45;;;2.10;;
21458;SDS011;10891;49.350;19.386;2023-08-06T13:54:07;4.60;;;2.60;;
21458;SDS011;10891;49.350;19.386;2023-08-06T13:56:36;2.42;;;1.42;;
21458;SDS011;10891;49.350;19.386;2023-08-06T13:59:03;0.30;;;0.30;;
21458;SDS011;10891;49.350;19.386;2023-08-06T14:01:32;0.38;;;0.38;;
21458;SDS011;10891;49.350;19.386;2023-08-06T14:03:59;0.30;;;0.30;;
21458;SDS011;10891;49.350;19.386;2023-08-06T14:06:27;0.57;;;0.40;;
21458;SDS011;10891;49.350;19.386;2023-08-06T14:08:55;0.30;;;0.30;;
21458;SDS011;10891;49.350;19.386;2023-08-06T14:11:23;0.30;;;0.30;;
21458;SDS011;10891;49.350;19.386;2023-08-06T14:13:52;0.30;;;0.30;;
21458;SDS011;10891;49.350;19.386;2023-08-06T14:16:19;0.70;;;0.40;;
21458;SDS011;10891;49.350;19.386;2023-08-06T14:18:47;0.43;;;0.30;;
21458;SDS011;10891;49.350;19.386;2023-08-06T14:21:15;0.93;;;0.30;;
21458;SDS011;10891;49.350;19.386;2023-08-06T14:23:42;0.30;;;0.30;;
21458;SDS011;10891;49.350;19.386;2023-08-06T14:26:10;0.43;;;0.40;;